sensor_id;sensor_type;location;lat;lon;timestamp;P1;durP1;ratioP1;P2;durP2;ratioP2
23678;SDS011;12016;51.668;6.874;2022-10-31T00:11:53;9.88;;;6.90;;
23678;SDS011;12016;51.668;6.874;2022-10-31T00:17:55;9.30;;;6.90;;
23678;SDS011;12016;51.668;6.874;2022-10-31T00:23:58;10.75;;;7.28;;
23678;SDS011;12016;51.668;6.874;2022-10-31T00:30:01;9.30;;;7.32;;
23678;SDS011;12016;51.668;6.874;2022-10-31T00:36:03;12.68;;;7.22;;
23678;SDS011;12016;51.668;6.874;2022-10-31T00:42:06;7.82;;;6.35;;
23678;SDS011;12016;51.668;6.874;2022-10-31T00:48:08;8.52;;;6.40;;
23678;SDS011;12016;51.668;6.874;2022-10-31T00:54:11;12.57;;;6.93;;
23678;SDS011;12016;51.668;6.874;2022-10-31T01:00:13;8.80;;;6.78;;
23678;SDS011;12016;51.668;6.874;2022-10-31T01:06:16;11.48;;;7.15;;
23678;SDS011;12016;51.668;6.874;2022-10-31T01:12:18;9.50;;;7.22;;
23678;SDS011;12016;51.668;6.874;2022-10-31T01:18:20;8.82;;;7.32;;
23678;SDS011;12016;51.668;6.874;2022-10-31T01:24:23;12.35;;;7.68;;
23678;SDS011;12016;51.668;6.874;2022-10-31T01:30:25;12.60;;;8.00;;
23678;SDS011;12016;51.668;6.874;2022-10-31T01:36:28;8.20;;;6.78;;
23678;SDS011;12016;51.668;6.874;2022-10-31T01:42:33;9.68;;;6.68;;
23678;SDS011;12016;51.668;6.874;2022-10-31T01:48:36;10.43;;;7.22;;
23678;SDS011;12016;51.668;6.874;2022-10-31T01:54:43;11.23;;;8.18;;
23678;SDS011;12016;51.668;6.874;2022-10-31T02:00:54;12.20;;;8.00;;
23678;SDS011;12016;51.668;6.874;2022-10-31T02:07:02;11.43;;;8.15;;
23678;SDS011;12016;51.668;6.874;2022-10-31T02:13:08;12.83;;;7.70;;
23678;SDS011;12016;51.668;6.874;2022-10-31T02:19:20;9.80;;;7.43;;
23678;SDS011;12016;51.668;6.874;2022-10-31T02:25:52;11.23;;;7.10;;
23678;SDS011;12016;51.668;6.874;2022-10-31T02:32:25;10.93;;;7.78;;
23678;SDS011;12016;51.668;6.874;2022-10-31T02:38:38;8.32;;;7.18;;
23678;SDS011;12016;51.668;6.874;2022-10-31T02:45:09;8.90;;;6.80;;
23678;SDS011;12016;51.668;6.874;2022-10-31T02:51:17;11.02;;;7.55;;
23678;SDS011;12016;51.668;6.874;2022-10-31T02:57:23;10.43;;;6.82;;
23678;SDS011;12016;51.668;6.874;2022-10-31T03:22:22;10.32;;;6.43;;
23678;SDS011;12016;51.668;6.874;2022-10-31T03:28:32;8.13;;;6.03;;
23678;SDS011;12016;51.668;6.874;2022-10-31T03:34:39;8.52;;;6.22;;
23678;SDS011;12016;51.668;6.874;2022-10-31T03:40:46;5.53;;;4.97;;
23678;SDS011;12016;51.668;6.874;2022-10-31T03:46:50;5.38;;;4.85;;
23678;SDS011;12016;51.668;6.874;2022-10-31T03:52:57;6.45;;;5.40;;
23678;SDS011;12016;51.668;6.874;2022-10-31T03:59:07;6.10;;;4.90;;
23678;SDS011;12016;51.668;6.874;2022-10-31T04:05:15;5.65;;;5.00;;
23678;SDS011;12016;51.668;6.874;2022-10-31T04:11:23;6.18;;;5.05;;
23678;SDS011;12016;51.668;6.874;2022-10-31T04:17:49;9.25;;;5.47;;
23678;SDS011;12016;51.668;6.874;2022-10-31T04:23:55;7.50;;;5.13;;
23678;SDS011;12016;51.668;6.874;2022-10-31T04:30:03;6.45;;;5.40;;
23678;SDS011;12016;51.668;6.874;2022-10-31T04:36:08;6.78;;;5.30;;
23678;SDS011;12016;51.668;6.874;2022-10-31T04:42:11;6.60;;;5.45;;
23678;SDS011;12016;51.668;6.874;2022-10-31T04:48:15;8.10;;;5.68;;
23678;SDS011;12016;51.668;6.874;2022-10-31T04:54:19;8.82;;;6.28;;
23678;SDS011;12016;51.668;6.874;2022-10-31T05:00:59;8.80;;;6.70;;
23678;SDS011;12016;51.668;6.874;2022-10-31T05:07:01;8.43;;;6.28;;
23678;SDS011;12016;51.668;6.874;2022-10-31T05:13:04;7.65;;;6.13;;
23678;SDS011;12016;51.668;6.874;2022-10-31T05:19:21;8.02;;;6.47;;
23678;SDS011;12016;51.668;6.874;2022-10-31T05:26:02;6.13;;;5.20;;
23678;SDS011;12016;51.668;6.874;2022-10-31T05:32:07;8.20;;;5.80;;
23678;SDS011;12016;51.668;6.874;2022-10-31T05:38:32;7.05;;;5.90;;
23678;SDS011;12016;51.668;6.874;2022-10-31T05:44:44;8.23;;;5.80;;
23678;SDS011;12016;51.668;6.874;2022-10-31T05:50:57;7.60;;;6.00;;
23678;SDS011;12016;51.668;6.874;2022-10-31T05:57:00;7.75;;;6.32;;
23678;SDS011;12016;51.668;6.874;2022-10-31T06:03:06;11.55;;;6.88;;
23678;SDS011;12016;51.668;6.874;2022-10-31T06:09:33;7.10;;;5.80;;
23678;SDS011;12016;51.668;6.874;2022-10-31T06:15:35;9.90;;;6.22;;
23678;SDS011;12016;51.668;6.874;2022-10-31T06:21:40;7.40;;;5.82;;
23678;SDS011;12016;51.668;6.874;2022-10-31T06:27:42;10.48;;;6.35;;
23678;SDS011;12016;51.668;6.874;2022-10-31T06:33:47;8.18;;;6.60;;
23678;SDS011;12016;51.668;6.874;2022-10-31T06:39:50;10.65;;;6.70;;
23678;SDS011;12016;51.668;6.874;2022-10-31T06:45:52;7.55;;;6.07;;
23678;SDS011;12016;51.668;6.874;2022-10-31T06:52:05;7.43;;;6.30;;
23678;SDS011;12016;51.668;6.874;2022-10-31T06:58:08;11.55;;;7.53;;
23678;SDS011;12016;51.668;6.874;2022-10-31T07:04:13;9.85;;;6.60;;
23678;SDS011;12016;51.668;6.874;2022-10-31T07:10:22;8.75;;;7.18;;
23678;SDS011;12016;51.668;6.874;2022-10-31T07:16:35;9.55;;;6.93;;
23678;SDS011;12016;51.668;6.874;2022-10-31T07:23:11;10.48;;;6.70;;
23678;SDS011;12016;51.668;6.874;2022-10-31T07:29:23;7.95;;;6.45;;
23678;SDS011;12016;51.668;6.874;2022-10-31T07:35:31;9.20;;;7.30;;
23678;SDS011;12016;51.668;6.874;2022-10-31T07:41:37;9.95;;;7.10;;
23678;SDS011;12016;51.668;6.874;2022-10-31T07:47:53;9.20;;;6.43;;
23678;SDS011;12016;51.668;6.874;2022-10-31T07:54:19;14.07;;;7.85;;
23678;SDS011;12016;51.668;6.874;2022-10-31T08:00:23;14.48;;;7.03;;
23678;SDS011;12016;51.668;6.874;2022-10-31T08:06:26;12.98;;;9.05;;
23678;SDS011;12016;51.668;6.874;2022-10-31T08:13:11;12.32;;;8.18;;
23678;SDS011;12016;51.668;6.874;2022-10-31T08:19:23;13.00;;;8.35;;
23678;SDS011;12016;51.668;6.874;2022-10-31T08:25:37;11.48;;;9.00;;
23678;SDS011;12016;51.668;6.874;2022-10-31T08:31:43;13.35;;;10.60;;
23678;SDS011;12016;51.668;6.874;2022-10-31T08:38:04;13.70;;;10.70;;
23678;SDS011;12016;51.668;6.874;2022-10-31T08:44:12;14.25;;;10.90;;
23678;SDS011;12016;51.668;6.874;2022-10-31T08:50:17;13.85;;;10.10;;
23678;SDS011;12016;51.668;6.874;2022-10-31T08:56:25;15.18;;;10.98;;
23678;SDS011;12016;51.668;6.874;2022-10-31T09:02:30;15.95;;;11.13;;
23678;SDS011;12016;51.668;6.874;2022-10-31T09:08:35;16.50;;;10.85;;
23678;SDS011;12016;51.668;6.874;2022-10-31T09:14:37;13.63;;;10.60;;
23678;SDS011;12016;51.668;6.874;2022-10-31T09:21:00;16.55;;;9.95;;
23678;SDS011;12016;51.668;6.874;2022-10-31T09:27:04;14.18;;;10.27;;
23678;SDS011;12016;51.668;6.874;2022-10-31T09:33:11;16.33;;;10.30;;
23678;SDS011;12016;51.668;6.874;2022-10-31T09:39:29;15.75;;;10.10;;
23678;SDS011;12016;51.668;6.874;2022-10-31T09:45:51;14.60;;;10.05;;
23678;SDS011;12016;51.668;6.874;2022-10-31T09:58:23;15.18;;;9.55;;
23678;SDS011;12016;51.668;6.874;2022-10-31T10:04:37;15.65;;;10.20;;
23678;SDS011;12016;51.668;6.874;2022-10-31T10:17:39;15.05;;;10.63;;
23678;SDS011;12016;51.668;6.874;2022-10-31T10:30:04;16.42;;;10.13;;
23678;SDS011;12016;51.668;6.874;2022-10-31T10:36:15;15.10;;;9.70;;
23678;SDS011;12016;51.668;6.874;2022-10-31T10:42:25;16.65;;;10.02;;
23678;SDS011;12016;51.668;6.874;2022-10-31T10:48:52;16.73;;;10.10;;
23678;SDS011;12016;51.668;6.874;2022-10-31T10:55:16;16.55;;;11.05;;
23678;SDS011;12016;51.668;6.874;2022-10-31T11:01:32;16.60;;;11.00;;
23678;SDS011;12016;51.668;6.874;2022-10-31T11:07:40;18.80;;;11.20;;
23678;SDS011;12016;51.668;6.874;2022-10-31T11:13:44;16.08;;;11.00;;
23678;SDS011;12016;51.668;6.874;2022-10-31T11:19:47;16.83;;;11.23;;
23678;SDS011;12016;51.668;6.874;2022-10-31T11:25:54;21.73;;;12.20;;
23678;SDS011;12016;51.668;6.874;2022-10-31T11:31:58;18.60;;;13.02;;
23678;SDS011;12016;51.668;6.874;2022-10-31T11:38:01;18.83;;;11.88;;
23678;SDS011;12016;51.668;6.874;2022-10-31T11:50:21;21.33;;;14.50;;
23678;SDS011;12016;51.668;6.874;2022-10-31T11:56:26;19.13;;;12.57;;
23678;SDS011;12016;51.668;6.874;2022-10-31T12:02:29;21.25;;;14.13;;
23678;SDS011;12016;51.668;6.874;2022-10-31T12:08:32;24.27;;;14.27;;
23678;SDS011;12016;51.668;6.874;2022-10-31T12:14:43;21.85;;;13.63;;
23678;SDS011;12016;51.668;6.874;2022-10-31T12:20:54;22.05;;;13.40;;
23678;SDS011;12016;51.668;6.874;2022-10-31T12:27:04;19.35;;;12.35;;
23678;SDS011;12016;51.668;6.874;2022-10-31T12:59:43;23.55;;;13.48;;
23678;SDS011;12016;51.668;6.874;2022-10-31T13:05:51;20.35;;;12.57;;
23678;SDS011;12016;51.668;6.874;2022-10-31T13:11:58;22.25;;;12.95;;
23678;SDS011;12016;51.668;6.874;2022-10-31T13:18:21;19.87;;;13.10;;
23678;SDS011;12016;51.668;6.874;2022-10-31T13:31:12;19.38;;;12.55;;
23678;SDS011;12016;51.668;6.874;2022-10-31T13:37:28;18.83;;;12.30;;
23678;SDS011;12016;51.668;6.874;2022-10-31T13:50:20;21.13;;;12.00;;
23678;SDS011;12016;51.668;6.874;2022-10-31T14:02:30;18.73;;;11.48;;
23678;SDS011;12016;51.668;6.874;2022-10-31T14:08:37;18.92;;;11.20;;
23678;SDS011;12016;51.668;6.874;2022-10-31T14:14:46;18.67;;;11.40;;
23678;SDS011;12016;51.668;6.874;2022-10-31T14:20:50;17.70;;;11.23;;
23678;SDS011;12016;51.668;6.874;2022-10-31T14:26:54;18.08;;;10.75;;
23678;SDS011;12016;51.668;6.874;2022-10-31T14:32:59;17.15;;;10.63;;
23678;SDS011;12016;51.668;6.874;2022-10-31T14:46:02;18.50;;;11.75;;
23678;SDS011;12016;51.668;6.874;2022-10-31T14:52:11;18.42;;;10.60;;
23678;SDS011;12016;51.668;6.874;2022-10-31T14:58:17;17.08;;;11.18;;
23678;SDS011;12016;51.668;6.874;2022-10-31T15:04:26;17.33;;;12.13;;
23678;SDS011;12016;51.668;6.874;2022-10-31T15:10:32;20.35;;;12.10;;
23678;SDS011;12016;51.668;6.874;2022-10-31T15:16:39;18.45;;;11.30;;
23678;SDS011;12016;51.668;6.874;2022-10-31T15:22:44;20.38;;;12.32;;
23678;SDS011;12016;51.668;6.874;2022-10-31T15:28:57;22.98;;;12.18;;
23678;SDS011;12016;51.668;6.874;2022-10-31T15:35:00;19.83;;;11.63;;
23678;SDS011;12016;51.668;6.874;2022-10-31T15:41:18;20.08;;;12.13;;
23678;SDS011;12016;51.668;6.874;2022-10-31T15:47:45;20.27;;;12.18;;
23678;SDS011;12016;51.668;6.874;2022-10-31T15:53:54;20.00;;;12.32;;
23678;SDS011;12016;51.668;6.874;2022-10-31T15:59:57;21.02;;;12.35;;
23678;SDS011;12016;51.668;6.874;2022-10-31T16:06:00;17.40;;;12.38;;
23678;SDS011;12016;51.668;6.874;2022-10-31T16:12:05;19.20;;;12.25;;
23678;SDS011;12016;51.668;6.874;2022-10-31T16:18:10;20.35;;;13.32;;
23678;SDS011;12016;51.668;6.874;2022-10-31T16:24:22;19.05;;;13.05;;
23678;SDS011;12016;51.668;6.874;2022-10-31T16:30:30;22.05;;;12.77;;
23678;SDS011;12016;51.668;6.874;2022-10-31T16:36:43;22.02;;;13.88;;
23678;SDS011;12016;51.668;6.874;2022-10-31T16:42:45;19.60;;;12.82;;
23678;SDS011;12016;51.668;6.874;2022-10-31T16:48:50;21.40;;;13.45;;
23678;SDS011;12016;51.668;6.874;2022-10-31T16:54:52;22.50;;;12.95;;
23678;SDS011;12016;51.668;6.874;2022-10-31T17:00:54;20.00;;;12.98;;
23678;SDS011;12016;51.668;6.874;2022-10-31T17:06:55;22.23;;;13.30;;
23678;SDS011;12016;51.668;6.874;2022-10-31T17:12:58;21.23;;;12.85;;
23678;SDS011;12016;51.668;6.874;2022-10-31T17:19:04;21.38;;;12.45;;
23678;SDS011;12016;51.668;6.874;2022-10-31T17:25:07;20.20;;;12.98;;
23678;SDS011;12016;51.668;6.874;2022-10-31T17:31:21;24.23;;;13.38;;
23678;SDS011;12016;51.668;6.874;2022-10-31T17:37:28;22.77;;;13.20;;
23678;SDS011;12016;51.668;6.874;2022-10-31T17:43:29;25.90;;;16.65;;
23678;SDS011;12016;51.668;6.874;2022-10-31T17:49:31;31.92;;;18.05;;
23678;SDS011;12016;51.668;6.874;2022-10-31T17:55:33;29.88;;;19.08;;
23678;SDS011;12016;51.668;6.874;2022-10-31T18:01:36;32.22;;;23.08;;
23678;SDS011;12016;51.668;6.874;2022-10-31T18:07:38;23.67;;;16.77;;
23678;SDS011;12016;51.668;6.874;2022-10-31T18:13:40;27.77;;;16.20;;
23678;SDS011;12016;51.668;6.874;2022-10-31T18:19:42;35.03;;;20.05;;
23678;SDS011;12016;51.668;6.874;2022-10-31T18:25:44;28.00;;;18.85;;
23678;SDS011;12016;51.668;6.874;2022-10-31T18:31:46;34.03;;;20.73;;
23678;SDS011;12016;51.668;6.874;2022-10-31T18:37:49;41.22;;;24.67;;
23678;SDS011;12016;51.668;6.874;2022-10-31T18:43:51;27.60;;;17.38;;
23678;SDS011;12016;51.668;6.874;2022-10-31T18:49:56;23.80;;;16.63;;
23678;SDS011;12016;51.668;6.874;2022-10-31T18:55:58;43.40;;;24.85;;
23678;SDS011;12016;51.668;6.874;2022-10-31T19:01:59;113.97;;;59.15;;
23678;SDS011;12016;51.668;6.874;2022-10-31T19:08:02;113.47;;;59.03;;
23678;SDS011;12016;51.668;6.874;2022-10-31T19:14:04;104.55;;;54.88;;
23678;SDS011;12016;51.668;6.874;2022-10-31T19:20:08;104.50;;;56.58;;
23678;SDS011;12016;51.668;6.874;2022-10-31T19:26:13;66.32;;;35.65;;
23678;SDS011;12016;51.668;6.874;2022-10-31T19:32:15;29.20;;;17.38;;
23678;SDS011;12016;51.668;6.874;2022-10-31T19:38:19;10.82;;;7.05;;
23678;SDS011;12016;51.668;6.874;2022-10-31T19:44:21;11.70;;;6.80;;
23678;SDS011;12016;51.668;6.874;2022-10-31T19:50:22;11.90;;;7.15;;
23678;SDS011;12016;51.668;6.874;2022-10-31T19:56:24;16.00;;;6.85;;
23678;SDS011;12016;51.668;6.874;2022-10-31T20:02:26;11.57;;;5.75;;
23678;SDS011;12016;51.668;6.874;2022-10-31T20:08:28;8.55;;;5.30;;
23678;SDS011;12016;51.668;6.874;2022-10-31T20:14:32;7.88;;;4.53;;
23678;SDS011;12016;51.668;6.874;2022-10-31T20:20:33;9.93;;;5.20;;
23678;SDS011;12016;51.668;6.874;2022-10-31T20:26:36;6.32;;;4.45;;
23678;SDS011;12016;51.668;6.874;2022-10-31T20:32:41;14.43;;;4.68;;
23678;SDS011;12016;51.668;6.874;2022-10-31T20:38:44;10.30;;;4.82;;
23678;SDS011;12016;51.668;6.874;2022-10-31T20:44:46;6.70;;;4.50;;
23678;SDS011;12016;51.668;6.874;2022-10-31T20:50:53;9.95;;;5.28;;
23678;SDS011;12016;51.668;6.874;2022-10-31T20:56:56;8.02;;;4.68;;
23678;SDS011;12016;51.668;6.874;2022-10-31T21:02:58;6.95;;;4.60;;
23678;SDS011;12016;51.668;6.874;2022-10-31T21:09:00;8.90;;;5.40;;
23678;SDS011;12016;51.668;6.874;2022-10-31T21:15:02;11.23;;;5.70;;
23678;SDS011;12016;51.668;6.874;2022-10-31T21:21:11;11.00;;;6.63;;
23678;SDS011;12016;51.668;6.874;2022-10-31T21:27:14;10.88;;;5.90;;
23678;SDS011;12016;51.668;6.874;2022-10-31T21:33:16;11.13;;;6.43;;
23678;SDS011;12016;51.668;6.874;2022-10-31T21:39:19;8.93;;;5.97;;
23678;SDS011;12016;51.668;6.874;2022-10-31T21:45:22;9.73;;;4.72;;
23678;SDS011;12016;51.668;6.874;2022-10-31T21:51:25;8.68;;;5.28;;
23678;SDS011;12016;51.668;6.874;2022-10-31T21:57:31;7.05;;;4.78;;
23678;SDS011;12016;51.668;6.874;2022-10-31T22:03:36;8.65;;;5.50;;
23678;SDS011;12016;51.668;6.874;2022-10-31T22:09:40;7.75;;;4.63;;
23678;SDS011;12016;51.668;6.874;2022-10-31T22:15:42;8.80;;;4.82;;
23678;SDS011;12016;51.668;6.874;2022-10-31T22:21:45;10.30;;;4.90;;
23678;SDS011;12016;51.668;6.874;2022-10-31T22:27:50;7.03;;;4.50;;
23678;SDS011;12016;51.668;6.874;2022-10-31T22:33:52;8.80;;;5.00;;
23678;SDS011;12016;51.668;6.874;2022-10-31T22:39:54;10.50;;;4.82;;
23678;SDS011;12016;51.668;6.874;2022-10-31T22:45:57;7.75;;;4.63;;
23678;SDS011;12016;51.668;6.874;2022-10-31T22:52:05;6.00;;;4.22;;
23678;SDS011;12016;51.668;6.874;2022-10-31T22:58:07;7.80;;;4.00;;
23678;SDS011;12016;51.668;6.874;2022-10-31T23:04:09;9.63;;;4.10;;
23678;SDS011;12016;51.668;6.874;2022-10-31T23:10:11;7.30;;;4.18;;
23678;SDS011;12016;51.668;6.874;2022-10-31T23:16:13;7.50;;;4.20;;
23678;SDS011;12016;51.668;6.874;2022-10-31T23:22:15;10.18;;;4.00;;
23678;SDS011;12016;51.668;6.874;2022-10-31T23:28:17;9.88;;;4.20;;
23678;SDS011;12016;51.668;6.874;2022-10-31T23:34:19;10.48;;;4.30;;
23678;SDS011;12016;51.668;6.874;2022-10-31T23:40:22;7.05;;;4.00;;
23678;SDS011;12016;51.668;6.874;2022-10-31T23:46:23;7.65;;;4.05;;
23678;SDS011;12016;51.668;6.874;2022-10-31T23:52:25;6.05;;;4.20;;
23678;SDS011;12016;51.668;6.874;2022-10-31T23:58:27;8.63;;;4.38;;
